sensor_id;sensor_type;location;lat;lon;timestamp;P1;durP1;ratioP1;P2;durP2;ratioP2
12663;SDS011;6396;58.490;15.528;2023-01-08T00:01:23;2.40;;;2.20;;
12663;SDS011;6396;58.490;15.528;2023-01-08T00:03:51;2.10;;;1.80;;
12663;SDS011;6396;58.490;15.528;2023-01-08T00:06:20;2.03;;;1.93;;
12663;SDS011;6396;58.490;15.528;2023-01-08T00:08:47;2.10;;;1.90;;
12663;SDS011;6396;58.490;15.528;2023-01-08T00:11:16;1.97;;;1.80;;
12663;SDS011;6396;58.490;15.528;2023-01-08T00:13:44;2.17;;;1.97;;
12663;SDS011;6396;58.490;15.528;2023-01-08T00:16:12;1.93;;;1.83;;
12663;SDS011;6396;58.490;15.528;2023-01-08T00:18:41;2.27;;;2.07;;
12663;SDS011;6396;58.490;15.528;2023-01-08T00:21:09;2.43;;;2.17;;
12663;SDS011;6396;58.490;15.528;2023-01-08T00:23:38;2.10;;;1.90;;
12663;SDS011;6396;58.490;15.528;2023-01-08T00:26:07;2.60;;;2.40;;
12663;SDS011;6396;58.490;15.528;2023-01-08T00:28:36;2.00;;;1.80;;
12663;SDS011;6396;58.490;15.528;2023-01-08T00:31:04;2.87;;;2.60;;
12663;SDS011;6396;58.490;15.528;2023-01-08T00:33:32;2.50;;;2.17;;
12663;SDS011;6396;58.490;15.528;2023-01-08T00:36:00;1.90;;;1.67;;
12663;SDS011;6396;58.490;15.528;2023-01-08T00:38:32;2.10;;;1.90;;
12663;SDS011;6396;58.490;15.528;2023-01-08T00:41:00;2.30;;;2.10;;
12663;SDS011;6396;58.490;15.528;2023-01-08T00:43:28;2.43;;;2.20;;
12663;SDS011;6396;58.490;15.528;2023-01-08T00:46:23;2.30;;;2.07;;
12663;SDS011;6396;58.490;15.528;2023-01-08T00:49:44;2.80;;;2.23;;
12663;SDS011;6396;58.490;15.528;2023-01-08T01:08:16;3.47;;;3.17;;
12663;SDS011;6396;58.490;15.528;2023-01-08T01:20:36;3.37;;;3.00;;
12663;SDS011;6396;58.490;15.528;2023-01-08T01:23:04;3.50;;;3.20;;
12663;SDS011;6396;58.490;15.528;2023-01-08T01:25:44;3.50;;;3.20;;
12663;SDS011;6396;58.490;15.528;2023-01-08T01:28:15;3.67;;;3.30;;
12663;SDS011;6396;58.490;15.528;2023-01-08T01:30:43;4.33;;;3.50;;
12663;SDS011;6396;58.490;15.528;2023-01-08T02:06:44;5.73;;;4.33;;
12663;SDS011;6396;58.490;15.528;2023-01-08T02:19:36;5.27;;;4.40;;
12663;SDS011;6396;58.490;15.528;2023-01-08T02:22:12;9.80;;;5.30;;
12663;SDS011;6396;58.490;15.528;2023-01-08T02:28:24;6.20;;;4.33;;
12663;SDS011;6396;58.490;15.528;2023-01-08T02:34:05;4.73;;;4.23;;
12663;SDS011;6396;58.490;15.528;2023-01-08T02:34:54;10.20;;;5.20;;
12663;SDS011;6396;58.490;15.528;2023-01-08T02:37:22;5.97;;;4.73;;
12663;SDS011;6396;58.490;15.528;2023-01-08T02:39:55;5.93;;;4.70;;
12663;SDS011;6396;58.490;15.528;2023-01-08T02:42:33;5.20;;;4.47;;
12663;SDS011;6396;58.490;15.528;2023-01-08T02:45:13;4.67;;;4.10;;
12663;SDS011;6396;58.490;15.528;2023-01-08T02:47:52;5.83;;;4.33;;
12663;SDS011;6396;58.490;15.528;2023-01-08T02:57:21;5.60;;;4.40;;
12663;SDS011;6396;58.490;15.528;2023-01-08T03:00:01;5.53;;;4.20;;
12663;SDS011;6396;58.490;15.528;2023-01-08T03:02:31;7.17;;;5.20;;
12663;SDS011;6396;58.490;15.528;2023-01-08T03:05:08;6.63;;;4.70;;
12663;SDS011;6396;58.490;15.528;2023-01-08T03:08:01;18.27;;;5.77;;
12663;SDS011;6396;58.490;15.528;2023-01-08T03:10:28;16.10;;;5.47;;
12663;SDS011;6396;58.490;15.528;2023-01-08T03:12:58;15.63;;;6.20;;
12663;SDS011;6396;58.490;15.528;2023-01-08T03:15:30;5.43;;;4.33;;
12663;SDS011;6396;58.490;15.528;2023-01-08T03:18:03;5.47;;;4.60;;
12663;SDS011;6396;58.490;15.528;2023-01-08T03:20:35;15.30;;;6.10;;
12663;SDS011;6396;58.490;15.528;2023-01-08T03:23:05;5.77;;;4.60;;
12663;SDS011;6396;58.490;15.528;2023-01-08T03:25:35;7.13;;;4.67;;
12663;SDS011;6396;58.490;15.528;2023-01-08T03:28:06;11.47;;;5.60;;
12663;SDS011;6396;58.490;15.528;2023-01-08T03:30:37;7.63;;;4.90;;
12663;SDS011;6396;58.490;15.528;2023-01-08T03:33:08;8.30;;;5.00;;
12663;SDS011;6396;58.490;15.528;2023-01-08T03:35:39;9.83;;;5.30;;
12663;SDS011;6396;58.490;15.528;2023-01-08T03:38:10;12.40;;;5.73;;
12663;SDS011;6396;58.490;15.528;2023-01-08T03:40:45;7.67;;;4.93;;
12663;SDS011;6396;58.490;15.528;2023-01-08T03:43:16;8.50;;;4.90;;
12663;SDS011;6396;58.490;15.528;2023-01-08T03:45:45;5.67;;;4.40;;
12663;SDS011;6396;58.490;15.528;2023-01-08T03:48:18;9.03;;;4.90;;
12663;SDS011;6396;58.490;15.528;2023-01-08T03:50:49;8.63;;;5.23;;
12663;SDS011;6396;58.490;15.528;2023-01-08T03:53:16;7.73;;;5.07;;
12663;SDS011;6396;58.490;15.528;2023-01-08T03:55:44;10.83;;;5.17;;
12663;SDS011;6396;58.490;15.528;2023-01-08T03:58:14;8.27;;;5.83;;
12663;SDS011;6396;58.490;15.528;2023-01-08T04:00:41;14.07;;;5.63;;
12663;SDS011;6396;58.490;15.528;2023-01-08T04:24:29;8.97;;;5.97;;
12663;SDS011;6396;58.490;15.528;2023-01-08T04:26:58;7.87;;;5.57;;
12663;SDS011;6396;58.490;15.528;2023-01-08T04:29:33;9.00;;;5.80;;
12663;SDS011;6396;58.490;15.528;2023-01-08T04:32:19;9.87;;;5.87;;
12663;SDS011;6396;58.490;15.528;2023-01-08T04:34:56;16.67;;;6.90;;
12663;SDS011;6396;58.490;15.528;2023-01-08T04:40:20;10.87;;;6.70;;
12663;SDS011;6396;58.490;15.528;2023-01-08T04:42:48;8.20;;;6.37;;
12663;SDS011;6396;58.490;15.528;2023-01-08T05:47:21;43.27;;;11.17;;
12663;SDS011;6396;58.490;15.528;2023-01-08T05:49:48;69.20;;;14.50;;
12663;SDS011;6396;58.490;15.528;2023-01-08T05:52:17;116.07;;;20.60;;
12663;SDS011;6396;58.490;15.528;2023-01-08T05:54:44;43.63;;;12.43;;
12663;SDS011;6396;58.490;15.528;2023-01-08T05:57:11;17.53;;;9.03;;
12663;SDS011;6396;58.490;15.528;2023-01-08T05:59:41;40.77;;;11.57;;
12663;SDS011;6396;58.490;15.528;2023-01-08T06:02:08;24.73;;;11.00;;
12663;SDS011;6396;58.490;15.528;2023-01-08T06:04:37;27.03;;;10.33;;
12663;SDS011;6396;58.490;15.528;2023-01-08T06:07:04;40.20;;;12.00;;
12663;SDS011;6396;58.490;15.528;2023-01-08T06:09:31;20.00;;;9.77;;
12663;SDS011;6396;58.490;15.528;2023-01-08T06:15:33;13.83;;;8.60;;
12663;SDS011;6396;58.490;15.528;2023-01-08T06:18:08;14.40;;;8.23;;
12663;SDS011;6396;58.490;15.528;2023-01-08T06:20:37;15.53;;;8.83;;
12663;SDS011;6396;58.490;15.528;2023-01-08T06:23:08;13.53;;;8.27;;
12663;SDS011;6396;58.490;15.528;2023-01-08T06:25:57;19.23;;;9.07;;
12663;SDS011;6396;58.490;15.528;2023-01-08T06:28:34;16.60;;;9.20;;
12663;SDS011;6396;58.490;15.528;2023-01-08T06:31:08;11.60;;;8.07;;
12663;SDS011;6396;58.490;15.528;2023-01-08T06:33:49;12.80;;;8.13;;
12663;SDS011;6396;58.490;15.528;2023-01-08T06:36:17;13.53;;;7.67;;
12663;SDS011;6396;58.490;15.528;2023-01-08T06:38:49;13.83;;;8.47;;
12663;SDS011;6396;58.490;15.528;2023-01-08T06:41:57;14.17;;;8.37;;
12663;SDS011;6396;58.490;15.528;2023-01-08T06:44:54;23.17;;;9.37;;
12663;SDS011;6396;58.490;15.528;2023-01-08T06:47:23;12.50;;;7.80;;
12663;SDS011;6396;58.490;15.528;2023-01-08T06:49:51;12.30;;;8.07;;
12663;SDS011;6396;58.490;15.528;2023-01-08T06:52:28;11.77;;;7.57;;
12663;SDS011;6396;58.490;15.528;2023-01-08T06:54:59;11.87;;;8.27;;
12663;SDS011;6396;58.490;15.528;2023-01-08T06:57:31;13.57;;;8.80;;
12663;SDS011;6396;58.490;15.528;2023-01-08T06:59:58;11.97;;;8.77;;
12663;SDS011;6396;58.490;15.528;2023-01-08T07:02:25;12.63;;;8.37;;
12663;SDS011;6396;58.490;15.528;2023-01-08T07:04:52;10.50;;;7.77;;
12663;SDS011;6396;58.490;15.528;2023-01-08T07:07:19;17.97;;;8.77;;
12663;SDS011;6396;58.490;15.528;2023-01-08T07:09:48;11.07;;;7.67;;
12663;SDS011;6396;58.490;15.528;2023-01-08T07:12:15;18.80;;;8.20;;
12663;SDS011;6396;58.490;15.528;2023-01-08T07:14:42;13.17;;;8.07;;
12663;SDS011;6396;58.490;15.528;2023-01-08T07:17:09;9.50;;;7.30;;
12663;SDS011;6396;58.490;15.528;2023-01-08T07:19:36;30.47;;;10.03;;
12663;SDS011;6396;58.490;15.528;2023-01-08T07:22:06;10.13;;;7.13;;
12663;SDS011;6396;58.490;15.528;2023-01-08T07:24:34;9.90;;;7.27;;
12663;SDS011;6396;58.490;15.528;2023-01-08T07:27:07;9.87;;;7.13;;
12663;SDS011;6396;58.490;15.528;2023-01-08T07:29:43;9.10;;;6.80;;
12663;SDS011;6396;58.490;15.528;2023-01-08T07:32:23;9.77;;;6.93;;
12663;SDS011;6396;58.490;15.528;2023-01-08T07:34:50;10.80;;;8.17;;
12663;SDS011;6396;58.490;15.528;2023-01-08T07:37:18;12.10;;;7.70;;
12663;SDS011;6396;58.490;15.528;2023-01-08T07:39:45;10.87;;;7.60;;
12663;SDS011;6396;58.490;15.528;2023-01-08T07:42:14;11.77;;;7.70;;
12663;SDS011;6396;58.490;15.528;2023-01-08T07:44:42;13.60;;;8.13;;
12663;SDS011;6396;58.490;15.528;2023-01-08T07:47:09;10.47;;;7.40;;
12663;SDS011;6396;58.490;15.528;2023-01-08T07:49:36;10.47;;;7.53;;
12663;SDS011;6396;58.490;15.528;2023-01-08T07:52:04;12.73;;;8.40;;
12663;SDS011;6396;58.490;15.528;2023-01-08T07:54:31;11.90;;;8.10;;
12663;SDS011;6396;58.490;15.528;2023-01-08T07:56:57;13.13;;;8.53;;
12663;SDS011;6396;58.490;15.528;2023-01-08T07:59:26;14.60;;;8.30;;
12663;SDS011;6396;58.490;15.528;2023-01-08T08:01:53;14.07;;;8.17;;
12663;SDS011;6396;58.490;15.528;2023-01-08T08:04:20;13.80;;;8.30;;
12663;SDS011;6396;58.490;15.528;2023-01-08T08:06:48;13.43;;;8.57;;
12663;SDS011;6396;58.490;15.528;2023-01-08T08:09:15;10.73;;;8.07;;
12663;SDS011;6396;58.490;15.528;2023-01-08T08:11:42;15.43;;;8.17;;
12663;SDS011;6396;58.490;15.528;2023-01-08T08:14:09;13.90;;;8.80;;
12663;SDS011;6396;58.490;15.528;2023-01-08T08:16:37;11.07;;;8.07;;
12663;SDS011;6396;58.490;15.528;2023-01-08T08:19:04;13.27;;;9.30;;
12663;SDS011;6396;58.490;15.528;2023-01-08T08:21:31;13.97;;;9.53;;
12663;SDS011;6396;58.490;15.528;2023-01-08T08:23:58;14.33;;;8.87;;
12663;SDS011;6396;58.490;15.528;2023-01-08T08:26:25;15.27;;;9.23;;
12663;SDS011;6396;58.490;15.528;2023-01-08T08:28:51;14.73;;;9.50;;
12663;SDS011;6396;58.490;15.528;2023-01-08T08:31:19;14.63;;;9.00;;
12663;SDS011;6396;58.490;15.528;2023-01-08T08:33:47;14.40;;;9.23;;
12663;SDS011;6396;58.490;15.528;2023-01-08T08:36:14;13.27;;;8.90;;
12663;SDS011;6396;58.490;15.528;2023-01-08T08:38:40;14.57;;;8.93;;
12663;SDS011;6396;58.490;15.528;2023-01-08T08:41:08;14.33;;;9.10;;
12663;SDS011;6396;58.490;15.528;2023-01-08T08:43:35;14.50;;;9.07;;
12663;SDS011;6396;58.490;15.528;2023-01-08T08:46:02;14.87;;;9.33;;
12663;SDS011;6396;58.490;15.528;2023-01-08T08:48:29;14.73;;;9.13;;
12663;SDS011;6396;58.490;15.528;2023-01-08T08:50:58;14.30;;;9.10;;
12663;SDS011;6396;58.490;15.528;2023-01-08T08:53:25;14.77;;;9.50;;
12663;SDS011;6396;58.490;15.528;2023-01-08T08:55:52;16.33;;;10.27;;
12663;SDS011;6396;58.490;15.528;2023-01-08T08:58:19;15.70;;;10.47;;
12663;SDS011;6396;58.490;15.528;2023-01-08T09:00:49;15.20;;;9.27;;
12663;SDS011;6396;58.490;15.528;2023-01-08T09:03:16;17.47;;;10.27;;
12663;SDS011;6396;58.490;15.528;2023-01-08T09:05:43;15.40;;;10.00;;
12663;SDS011;6396;58.490;15.528;2023-01-08T09:08:12;17.40;;;10.57;;
12663;SDS011;6396;58.490;15.528;2023-01-08T09:10:39;16.03;;;10.23;;
12663;SDS011;6396;58.490;15.528;2023-01-08T09:13:07;15.87;;;10.80;;
12663;SDS011;6396;58.490;15.528;2023-01-08T09:15:38;16.60;;;10.87;;
12663;SDS011;6396;58.490;15.528;2023-01-08T09:18:05;16.33;;;11.87;;
12663;SDS011;6396;58.490;15.528;2023-01-08T09:20:32;14.67;;;10.60;;
12663;SDS011;6396;58.490;15.528;2023-01-08T09:22:59;15.70;;;11.17;;
12663;SDS011;6396;58.490;15.528;2023-01-08T09:25:28;17.07;;;11.03;;
12663;SDS011;6396;58.490;15.528;2023-01-08T09:27:59;18.83;;;11.23;;
12663;SDS011;6396;58.490;15.528;2023-01-08T09:31:41;16.97;;;11.73;;
12663;SDS011;6396;58.490;15.528;2023-01-08T09:59:32;24.03;;;14.47;;
12663;SDS011;6396;58.490;15.528;2023-01-08T10:18:45;25.17;;;15.17;;
12663;SDS011;6396;58.490;15.528;2023-01-08T10:21:12;25.87;;;15.10;;
12663;SDS011;6396;58.490;15.528;2023-01-08T10:23:47;24.77;;;15.30;;
12663;SDS011;6396;58.490;15.528;2023-01-08T10:26:23;26.03;;;16.23;;
12663;SDS011;6396;58.490;15.528;2023-01-08T10:29:04;25.80;;;15.93;;
12663;SDS011;6396;58.490;15.528;2023-01-08T10:31:32;26.23;;;15.97;;
12663;SDS011;6396;58.490;15.528;2023-01-08T10:34:07;28.20;;;17.23;;
12663;SDS011;6396;58.490;15.528;2023-01-08T10:36:38;24.73;;;15.80;;
12663;SDS011;6396;58.490;15.528;2023-01-08T10:39:06;23.90;;;16.13;;
12663;SDS011;6396;58.490;15.528;2023-01-08T10:41:44;23.20;;;14.70;;
12663;SDS011;6396;58.490;15.528;2023-01-08T10:44:14;26.13;;;16.17;;
12663;SDS011;6396;58.490;15.528;2023-01-08T10:46:43;27.07;;;17.20;;
12663;SDS011;6396;58.490;15.528;2023-01-08T10:49:16;29.77;;;18.57;;
12663;SDS011;6396;58.490;15.528;2023-01-08T10:51:49;31.07;;;19.20;;
12663;SDS011;6396;58.490;15.528;2023-01-08T10:54:28;28.33;;;18.07;;
12663;SDS011;6396;58.490;15.528;2023-01-08T10:56:59;32.03;;;17.73;;
12663;SDS011;6396;58.490;15.528;2023-01-08T10:59:26;28.70;;;17.03;;
12663;SDS011;6396;58.490;15.528;2023-01-08T11:01:53;27.27;;;17.27;;
12663;SDS011;6396;58.490;15.528;2023-01-08T11:04:25;27.80;;;17.17;;
12663;SDS011;6396;58.490;15.528;2023-01-08T11:06:56;29.20;;;16.60;;
12663;SDS011;6396;58.490;15.528;2023-01-08T11:09:27;27.83;;;16.10;;
12663;SDS011;6396;58.490;15.528;2023-01-08T11:11:56;26.47;;;15.10;;
12663;SDS011;6396;58.490;15.528;2023-01-08T11:14:24;25.83;;;15.53;;
12663;SDS011;6396;58.490;15.528;2023-01-08T11:16:55;31.03;;;16.10;;
12663;SDS011;6396;58.490;15.528;2023-01-08T11:19:24;27.50;;;17.33;;
12663;SDS011;6396;58.490;15.528;2023-01-08T11:21:54;25.17;;;16.20;;
12663;SDS011;6396;58.490;15.528;2023-01-08T11:24:23;28.50;;;16.10;;
12663;SDS011;6396;58.490;15.528;2023-01-08T11:26:52;31.00;;;16.30;;
12663;SDS011;6396;58.490;15.528;2023-01-08T11:29:24;28.00;;;16.23;;
12663;SDS011;6396;58.490;15.528;2023-01-08T11:32:04;32.77;;;17.17;;
12663;SDS011;6396;58.490;15.528;2023-01-08T11:34:53;24.53;;;16.80;;
12663;SDS011;6396;58.490;15.528;2023-01-08T11:37:25;32.50;;;17.60;;
12663;SDS011;6396;58.490;15.528;2023-01-08T11:39:53;31.17;;;15.43;;
12663;SDS011;6396;58.490;15.528;2023-01-08T11:42:26;30.33;;;17.60;;
12663;SDS011;6396;58.490;15.528;2023-01-08T11:45:12;32.03;;;17.17;;
12663;SDS011;6396;58.490;15.528;2023-01-08T11:48:23;32.40;;;18.17;;
12663;SDS011;6396;58.490;15.528;2023-01-08T11:51:35;45.10;;;19.20;;
12663;SDS011;6396;58.490;15.528;2023-01-08T11:54:25;38.07;;;18.63;;
12663;SDS011;6396;58.490;15.528;2023-01-08T12:04:44;37.10;;;19.27;;
12663;SDS011;6396;58.490;15.528;2023-01-08T12:08:00;34.70;;;19.13;;
12663;SDS011;6396;58.490;15.528;2023-01-08T12:10:32;32.57;;;18.50;;
12663;SDS011;6396;58.490;15.528;2023-01-08T12:13:24;30.13;;;17.57;;
12663;SDS011;6396;58.490;15.528;2023-01-08T12:16:01;33.57;;;19.13;;
12663;SDS011;6396;58.490;15.528;2023-01-08T12:18:49;37.83;;;18.87;;
12663;SDS011;6396;58.490;15.528;2023-01-08T12:21:33;33.77;;;19.03;;
12663;SDS011;6396;58.490;15.528;2023-01-08T12:24:18;36.37;;;17.97;;
12663;SDS011;6396;58.490;15.528;2023-01-08T12:27:00;38.00;;;18.40;;
12663;SDS011;6396;58.490;15.528;2023-01-08T12:29:45;33.23;;;17.93;;
12663;SDS011;6396;58.490;15.528;2023-01-08T12:32:30;34.53;;;18.10;;
12663;SDS011;6396;58.490;15.528;2023-01-08T12:35:03;42.00;;;19.33;;
12663;SDS011;6396;58.490;15.528;2023-01-08T12:37:38;37.40;;;19.97;;
12663;SDS011;6396;58.490;15.528;2023-01-08T12:40:14;34.67;;;19.53;;
12663;SDS011;6396;58.490;15.528;2023-01-08T12:42:45;42.37;;;19.70;;
12663;SDS011;6396;58.490;15.528;2023-01-08T12:45:15;48.70;;;20.40;;
12663;SDS011;6396;58.490;15.528;2023-01-08T12:47:46;38.17;;;18.47;;
12663;SDS011;6396;58.490;15.528;2023-01-08T12:50:24;34.50;;;17.67;;
12663;SDS011;6396;58.490;15.528;2023-01-08T12:53:00;34.70;;;17.17;;
12663;SDS011;6396;58.490;15.528;2023-01-08T12:55:34;44.93;;;19.00;;
12663;SDS011;6396;58.490;15.528;2023-01-08T12:58:16;36.17;;;17.60;;
12663;SDS011;6396;58.490;15.528;2023-01-08T13:00:53;37.60;;;18.53;;
12663;SDS011;6396;58.490;15.528;2023-01-08T13:03:26;44.93;;;19.17;;
12663;SDS011;6396;58.490;15.528;2023-01-08T13:06:03;33.10;;;16.90;;
12663;SDS011;6396;58.490;15.528;2023-01-08T13:08:33;32.67;;;18.50;;
12663;SDS011;6396;58.490;15.528;2023-01-08T13:11:04;40.20;;;21.70;;
12663;SDS011;6396;58.490;15.528;2023-01-08T13:13:33;36.17;;;20.53;;
12663;SDS011;6396;58.490;15.528;2023-01-08T13:16:05;33.50;;;17.27;;
12663;SDS011;6396;58.490;15.528;2023-01-08T13:18:33;30.73;;;15.30;;
12663;SDS011;6396;58.490;15.528;2023-01-08T13:21:01;38.33;;;15.10;;
12663;SDS011;6396;58.490;15.528;2023-01-08T13:23:31;47.83;;;15.83;;
12663;SDS011;6396;58.490;15.528;2023-01-08T13:26:04;26.90;;;13.43;;
12663;SDS011;6396;58.490;15.528;2023-01-08T13:28:40;45.30;;;14.20;;
12663;SDS011;6396;58.490;15.528;2023-01-08T13:31:23;107.37;;;25.53;;
12663;SDS011;6396;58.490;15.528;2023-01-08T13:33:52;190.93;;;30.33;;
12663;SDS011;6396;58.490;15.528;2023-01-08T13:36:23;26.13;;;13.97;;
12663;SDS011;6396;58.490;15.528;2023-01-08T13:38:58;33.57;;;13.83;;
12663;SDS011;6396;58.490;15.528;2023-01-08T13:41:32;32.37;;;13.50;;
12663;SDS011;6396;58.490;15.528;2023-01-08T13:44:14;29.43;;;13.83;;
12663;SDS011;6396;58.490;15.528;2023-01-08T13:46:51;28.77;;;12.10;;
12663;SDS011;6396;58.490;15.528;2023-01-08T13:49:22;33.70;;;13.97;;
12663;SDS011;6396;58.490;15.528;2023-01-08T13:51:54;86.53;;;18.73;;
12663;SDS011;6396;58.490;15.528;2023-01-08T13:54:28;28.53;;;12.33;;
12663;SDS011;6396;58.490;15.528;2023-01-08T13:57:03;29.77;;;13.17;;
12663;SDS011;6396;58.490;15.528;2023-01-08T13:59:39;20.17;;;11.87;;
12663;SDS011;6396;58.490;15.528;2023-01-08T14:02:20;17.60;;;11.77;;
12663;SDS011;6396;58.490;15.528;2023-01-08T14:04:55;28.57;;;14.03;;
12663;SDS011;6396;58.490;15.528;2023-01-08T14:07:26;24.77;;;13.70;;
12663;SDS011;6396;58.490;15.528;2023-01-08T14:10:04;23.30;;;13.63;;
12663;SDS011;6396;58.490;15.528;2023-01-08T14:12:37;18.23;;;13.03;;
12663;SDS011;6396;58.490;15.528;2023-01-08T14:15:09;23.73;;;14.30;;
12663;SDS011;6396;58.490;15.528;2023-01-08T14:17:49;23.70;;;12.80;;
12663;SDS011;6396;58.490;15.528;2023-01-08T14:23:07;19.83;;;12.00;;
12663;SDS011;6396;58.490;15.528;2023-01-08T14:25:37;17.03;;;11.83;;
12663;SDS011;6396;58.490;15.528;2023-01-08T14:28:13;24.97;;;11.97;;
12663;SDS011;6396;58.490;15.528;2023-01-08T14:30:46;17.53;;;11.27;;
12663;SDS011;6396;58.490;15.528;2023-01-08T14:33:14;32.33;;;11.73;;
12663;SDS011;6396;58.490;15.528;2023-01-08T14:35:42;15.87;;;11.53;;
12663;SDS011;6396;58.490;15.528;2023-01-08T14:38:14;19.80;;;11.40;;
12663;SDS011;6396;58.490;15.528;2023-01-08T14:40:42;18.00;;;10.87;;
12663;SDS011;6396;58.490;15.528;2023-01-08T14:43:17;21.57;;;10.50;;
12663;SDS011;6396;58.490;15.528;2023-01-08T14:45:46;20.03;;;10.17;;
12663;SDS011;6396;58.490;15.528;2023-01-08T14:48:19;20.03;;;11.40;;
12663;SDS011;6396;58.490;15.528;2023-01-08T14:51:01;16.77;;;10.07;;
12663;SDS011;6396;58.490;15.528;2023-01-08T14:53:32;19.13;;;10.53;;
12663;SDS011;6396;58.490;15.528;2023-01-08T14:56:01;22.67;;;12.37;;
12663;SDS011;6396;58.490;15.528;2023-01-08T14:58:35;105.77;;;21.23;;
12663;SDS011;6396;58.490;15.528;2023-01-08T15:01:05;56.47;;;16.30;;
12663;SDS011;6396;58.490;15.528;2023-01-08T15:03:36;85.17;;;19.80;;
12663;SDS011;6396;58.490;15.528;2023-01-08T15:06:07;96.20;;;20.57;;
12663;SDS011;6396;58.490;15.528;2023-01-08T15:08:35;58.43;;;19.80;;
12663;SDS011;6396;58.490;15.528;2023-01-08T15:11:10;22.77;;;16.13;;
12663;SDS011;6396;58.490;15.528;2023-01-08T15:13:49;23.43;;;15.93;;
12663;SDS011;6396;58.490;15.528;2023-01-08T15:16:19;19.13;;;14.87;;
12663;SDS011;6396;58.490;15.528;2023-01-08T15:18:55;20.80;;;14.83;;
12663;SDS011;6396;58.490;15.528;2023-01-08T15:21:28;17.03;;;13.37;;
12663;SDS011;6396;58.490;15.528;2023-01-08T15:23:56;16.83;;;12.37;;
12663;SDS011;6396;58.490;15.528;2023-01-08T15:26:25;25.57;;;12.67;;
12663;SDS011;6396;58.490;15.528;2023-01-08T15:28:55;23.67;;;11.60;;
12663;SDS011;6396;58.490;15.528;2023-01-08T15:31:24;15.80;;;9.93;;
12663;SDS011;6396;58.490;15.528;2023-01-08T15:33:52;19.53;;;9.97;;
12663;SDS011;6396;58.490;15.528;2023-01-08T15:36:22;31.23;;;10.80;;
12663;SDS011;6396;58.490;15.528;2023-01-08T15:38:49;16.20;;;9.30;;
12663;SDS011;6396;58.490;15.528;2023-01-08T15:41:17;21.83;;;11.57;;
12663;SDS011;6396;58.490;15.528;2023-01-08T15:44:08;15.80;;;9.30;;
12663;SDS011;6396;58.490;15.528;2023-01-08T15:46:37;16.27;;;9.93;;
12663;SDS011;6396;58.490;15.528;2023-01-08T15:49:04;14.67;;;9.00;;
12663;SDS011;6396;58.490;15.528;2023-01-08T15:51:31;15.40;;;10.80;;
12663;SDS011;6396;58.490;15.528;2023-01-08T15:54:03;15.47;;;10.00;;
12663;SDS011;6396;58.490;15.528;2023-01-08T15:56:30;14.97;;;8.83;;
12663;SDS011;6396;58.490;15.528;2023-01-08T15:58:58;14.43;;;8.77;;
12663;SDS011;6396;58.490;15.528;2023-01-08T16:01:28;19.40;;;9.70;;
12663;SDS011;6396;58.490;15.528;2023-01-08T16:03:57;17.67;;;9.67;;
12663;SDS011;6396;58.490;15.528;2023-01-08T16:06:25;17.00;;;9.37;;
12663;SDS011;6396;58.490;15.528;2023-01-08T16:08:52;44.67;;;12.67;;
12663;SDS011;6396;58.490;15.528;2023-01-08T16:11:24;34.83;;;11.53;;
12663;SDS011;6396;58.490;15.528;2023-01-08T16:13:51;34.93;;;12.30;;
12663;SDS011;6396;58.490;15.528;2023-01-08T16:16:18;17.73;;;10.30;;
12663;SDS011;6396;58.490;15.528;2023-01-08T16:18:46;29.17;;;10.00;;
12663;SDS011;6396;58.490;15.528;2023-01-08T16:21:13;24.87;;;11.60;;
12663;SDS011;6396;58.490;15.528;2023-01-08T16:23:40;17.33;;;9.80;;
12663;SDS011;6396;58.490;15.528;2023-01-08T16:26:08;13.63;;;8.73;;
12663;SDS011;6396;58.490;15.528;2023-01-08T16:28:36;21.57;;;9.53;;
12663;SDS011;6396;58.490;15.528;2023-01-08T16:31:06;19.30;;;9.73;;
12663;SDS011;6396;58.490;15.528;2023-01-08T16:33:44;14.50;;;8.90;;
12663;SDS011;6396;58.490;15.528;2023-01-08T16:36:16;15.63;;;8.53;;
12663;SDS011;6396;58.490;15.528;2023-01-08T16:38:43;232.40;;;31.13;;
12663;SDS011;6396;58.490;15.528;2023-01-08T16:41:16;18.03;;;9.57;;
12663;SDS011;6396;58.490;15.528;2023-01-08T16:43:46;18.47;;;9.43;;
12663;SDS011;6396;58.490;15.528;2023-01-08T16:46:17;27.33;;;9.97;;
12663;SDS011;6396;58.490;15.528;2023-01-08T16:48:44;39.73;;;11.03;;
12663;SDS011;6396;58.490;15.528;2023-01-08T16:51:18;19.47;;;8.17;;
12663;SDS011;6396;58.490;15.528;2023-01-08T16:53:45;176.43;;;24.97;;
12663;SDS011;6396;58.490;15.528;2023-01-08T16:56:12;17.97;;;9.10;;
12663;SDS011;6396;58.490;15.528;2023-01-08T16:58:39;23.67;;;8.70;;
12663;SDS011;6396;58.490;15.528;2023-01-08T17:01:07;42.87;;;10.77;;
12663;SDS011;6396;58.490;15.528;2023-01-08T17:03:35;47.77;;;11.53;;
12663;SDS011;6396;58.490;15.528;2023-01-08T17:06:02;19.40;;;7.77;;
12663;SDS011;6396;58.490;15.528;2023-01-08T17:08:31;17.60;;;7.37;;
12663;SDS011;6396;58.490;15.528;2023-01-08T17:11:05;88.73;;;14.67;;
12663;SDS011;6396;58.490;15.528;2023-01-08T17:13:32;29.90;;;8.60;;
12663;SDS011;6396;58.490;15.528;2023-01-08T17:16:01;15.27;;;6.63;;
12663;SDS011;6396;58.490;15.528;2023-01-08T17:19:15;41.00;;;9.73;;
12663;SDS011;6396;58.490;15.528;2023-01-08T17:21:47;12.13;;;6.57;;
12663;SDS011;6396;58.490;15.528;2023-01-08T17:24:16;13.03;;;7.57;;
12663;SDS011;6396;58.490;15.528;2023-01-08T17:26:43;84.90;;;15.33;;
12663;SDS011;6396;58.490;15.528;2023-01-08T17:29:09;129.60;;;17.57;;
12663;SDS011;6396;58.490;15.528;2023-01-08T17:31:36;31.83;;;8.13;;
12663;SDS011;6396;58.490;15.528;2023-01-08T17:34:05;28.83;;;8.57;;
12663;SDS011;6396;58.490;15.528;2023-01-08T17:36:32;29.70;;;7.80;;
12663;SDS011;6396;58.490;15.528;2023-01-08T17:39:05;18.47;;;7.37;;
12663;SDS011;6396;58.490;15.528;2023-01-08T17:41:34;24.93;;;8.43;;
12663;SDS011;6396;58.490;15.528;2023-01-08T17:44:19;15.47;;;6.60;;
12663;SDS011;6396;58.490;15.528;2023-01-08T17:46:46;8.43;;;5.47;;
12663;SDS011;6396;58.490;15.528;2023-01-08T17:49:13;10.93;;;6.17;;
12663;SDS011;6396;58.490;15.528;2023-01-08T17:51:42;19.07;;;6.67;;
12663;SDS011;6396;58.490;15.528;2023-01-08T17:54:10;28.73;;;7.83;;
12663;SDS011;6396;58.490;15.528;2023-01-08T17:56:39;7.40;;;6.00;;
12663;SDS011;6396;58.490;15.528;2023-01-08T17:59:06;7.50;;;5.87;;
12663;SDS011;6396;58.490;15.528;2023-01-08T18:01:33;7.83;;;6.20;;
12663;SDS011;6396;58.490;15.528;2023-01-08T18:04:00;23.43;;;7.47;;
12663;SDS011;6396;58.490;15.528;2023-01-08T18:06:28;9.87;;;6.57;;
12663;SDS011;6396;58.490;15.528;2023-01-08T18:08:55;29.97;;;7.77;;
12663;SDS011;6396;58.490;15.528;2023-01-08T18:11:21;18.53;;;6.90;;
12663;SDS011;6396;58.490;15.528;2023-01-08T18:13:54;6.60;;;5.03;;
12663;SDS011;6396;58.490;15.528;2023-01-08T18:16:22;31.10;;;8.23;;
12663;SDS011;6396;58.490;15.528;2023-01-08T18:18:49;10.40;;;6.37;;
12663;SDS011;6396;58.490;15.528;2023-01-08T18:21:16;6.63;;;5.93;;
12663;SDS011;6396;58.490;15.528;2023-01-08T18:23:43;6.80;;;6.10;;
12663;SDS011;6396;58.490;15.528;2023-01-08T18:26:12;7.57;;;6.70;;
12663;SDS011;6396;58.490;15.528;2023-01-08T18:28:40;11.33;;;7.83;;
12663;SDS011;6396;58.490;15.528;2023-01-08T18:33:50;8.57;;;7.23;;
12663;SDS011;6396;58.490;15.528;2023-01-08T18:36:18;8.33;;;7.07;;
12663;SDS011;6396;58.490;15.528;2023-01-08T18:38:47;16.30;;;7.77;;
12663;SDS011;6396;58.490;15.528;2023-01-08T18:41:16;9.20;;;7.07;;
12663;SDS011;6396;58.490;15.528;2023-01-08T18:43:58;12.07;;;7.23;;
12663;SDS011;6396;58.490;15.528;2023-01-08T18:46:27;10.03;;;7.00;;